Etusivu
METAR-TAF:

METAR-TAF

Lentoasemat :

Monroe Municipal Airport

Monroe, Wisconsin, Yhdysvallat

Leveyspiiri: 42-36-54N, Pituuspiiri: 089-35-27W, korkeus merenpinnasta: 331 m

Tämänhetkinen sää

Tämä raportti tehtiin 21 minuuttia sitten, kello 09.35 UTC
Tuuli 9 kn lännestä/luoteesta
Lämpötila -1°C
Kosteus 93%
Ilmanpaine 1013 hPa
Näkyvyys: 16.1 km
Hajanaisia pilviä 800 ft:n korkeudessa
Hajonneita pilviä 1400 ft:n korkeudessa
Hajonneita pilviä 3900 ft:n korkeudessa

METAR: KEFT 260935Z AUTO 29009KT 10SM SCT008 BKN014 BKN039 M01/M02 A2990 RMK AO2 T10131021

Aika: 03:56 (09:56 UTC)


TAF: puuttuu

Säähavainnot ja -ennusteet yli 4000 lentoasemalta (METAR- ja TAF-raportit).

Käytössä olevat sääasemat on merkitty karttaan keltaisilla ja punaisilla pisteillä.

Aseta hiiri pisteen päälle nähdäksesi sääaseman nimen.

Klikkaa sitten nähdäksesi säähavainnot ja -ennusteet.

Kartan vaihtaminen: klikkaa mustalla rastilla varustettuja vihreitä pisteitä, niin voit zoomata sisään; viivalla varustettua vihreää pistettä, niin voit zoomata ulos tai vihreitä nuolia, niin pääset viereisille kartoille.


METAR-TAF: